sensor_id;sensor_type;location;lat;lon;timestamp;P1;durP1;ratioP1;P2;durP2;ratioP2
71148;SDS011;59072;42.144;25.200;2023-02-15T00:01:10;52.22;;;25.98;;
71148;SDS011;59072;42.144;25.200;2023-02-15T00:03:36;41.50;;;21.23;;
71148;SDS011;59072;42.144;25.200;2023-02-15T00:06:03;39.78;;;19.55;;
71148;SDS011;59072;42.144;25.200;2023-02-15T00:08:28;37.42;;;19.45;;
71148;SDS011;59072;42.144;25.200;2023-02-15T00:11:02;43.78;;;20.55;;
71148;SDS011;59072;42.144;25.200;2023-02-15T00:13:32;42.15;;;20.60;;
71148;SDS011;59072;42.144;25.200;2023-02-15T00:16:03;43.10;;;21.77;;
71148;SDS011;59072;42.144;25.200;2023-02-15T00:18:31;54.58;;;25.50;;
71148;SDS011;59072;42.144;25.200;2023-02-15T00:20:57;53.00;;;26.42;;
71148;SDS011;59072;42.144;25.200;2023-02-15T00:23:23;49.90;;;26.00;;
71148;SDS011;59072;42.144;25.200;2023-02-15T00:25:49;49.92;;;25.50;;
71148;SDS011;59072;42.144;25.200;2023-02-15T00:28:15;48.50;;;23.45;;
71148;SDS011;59072;42.144;25.200;2023-02-15T00:30:41;55.50;;;25.33;;
71148;SDS011;59072;42.144;25.200;2023-02-15T00:33:06;55.17;;;27.38;;
71148;SDS011;59072;42.144;25.200;2023-02-15T00:35:31;55.53;;;26.00;;
71148;SDS011;59072;42.144;25.200;2023-02-15T00:37:59;52.88;;;25.80;;
71148;SDS011;59072;42.144;25.200;2023-02-15T00:40:25;53.17;;;26.60;;
71148;SDS011;59072;42.144;25.200;2023-02-15T00:42:50;50.38;;;25.30;;
71148;SDS011;59072;42.144;25.200;2023-02-15T00:45:15;58.58;;;26.95;;
71148;SDS011;59072;42.144;25.200;2023-02-15T00:47:41;55.60;;;26.92;;
71148;SDS011;59072;42.144;25.200;2023-02-15T00:50:06;48.85;;;24.58;;
71148;SDS011;59072;42.144;25.200;2023-02-15T00:52:32;50.15;;;24.67;;
71148;SDS011;59072;42.144;25.200;2023-02-15T00:54:57;46.50;;;24.50;;
71148;SDS011;59072;42.144;25.200;2023-02-15T00:57:23;45.17;;;23.00;;
71148;SDS011;59072;42.144;25.200;2023-02-15T00:59:48;42.70;;;21.63;;
71148;SDS011;59072;42.144;25.200;2023-02-15T01:02:14;43.30;;;23.40;;
71148;SDS011;59072;42.144;25.200;2023-02-15T01:04:40;41.25;;;21.83;;
71148;SDS011;59072;42.144;25.200;2023-02-15T01:07:05;41.38;;;21.95;;
71148;SDS011;59072;42.144;25.200;2023-02-15T01:09:30;44.38;;;23.02;;
71148;SDS011;59072;42.144;25.200;2023-02-15T01:11:56;41.85;;;21.83;;
71148;SDS011;59072;42.144;25.200;2023-02-15T01:14:21;45.08;;;21.38;;
71148;SDS011;59072;42.144;25.200;2023-02-15T01:16:47;42.75;;;22.45;;
71148;SDS011;59072;42.144;25.200;2023-02-15T01:19:12;48.65;;;23.15;;
71148;SDS011;59072;42.144;25.200;2023-02-15T01:21:38;42.63;;;22.15;;
71148;SDS011;59072;42.144;25.200;2023-02-15T01:24:10;41.67;;;21.93;;
71148;SDS011;59072;42.144;25.200;2023-02-15T01:26:37;45.58;;;20.27;;
71148;SDS011;59072;42.144;25.200;2023-02-15T01:29:02;37.95;;;18.52;;
71148;SDS011;59072;42.144;25.200;2023-02-15T01:31:28;35.72;;;18.58;;
71148;SDS011;59072;42.144;25.200;2023-02-15T01:33:53;38.97;;;18.42;;
71148;SDS011;59072;42.144;25.200;2023-02-15T01:36:18;33.03;;;18.75;;
71148;SDS011;59072;42.144;25.200;2023-02-15T01:38:44;35.03;;;17.70;;
71148;SDS011;59072;42.144;25.200;2023-02-15T01:41:10;36.05;;;18.55;;
71148;SDS011;59072;42.144;25.200;2023-02-15T01:43:49;35.50;;;19.02;;
71148;SDS011;59072;42.144;25.200;2023-02-15T01:46:23;36.85;;;18.67;;
71148;SDS011;59072;42.144;25.200;2023-02-15T01:48:54;36.78;;;19.38;;
71148;SDS011;59072;42.144;25.200;2023-02-15T01:51:25;43.08;;;20.23;;
71148;SDS011;59072;42.144;25.200;2023-02-15T01:53:58;39.08;;;19.90;;
71148;SDS011;59072;42.144;25.200;2023-02-15T01:56:37;42.95;;;20.48;;
71148;SDS011;59072;42.144;25.200;2023-02-15T01:59:06;47.97;;;22.55;;
71148;SDS011;59072;42.144;25.200;2023-02-15T02:01:36;49.70;;;22.40;;
71148;SDS011;59072;42.144;25.200;2023-02-15T02:06:48;44.40;;;19.92;;
71148;SDS011;59072;42.144;25.200;2023-02-15T02:09:15;40.00;;;20.05;;
71148;SDS011;59072;42.144;25.200;2023-02-15T02:11:41;34.72;;;19.67;;
71148;SDS011;59072;42.144;25.200;2023-02-15T02:14:09;38.45;;;19.60;;
71148;SDS011;59072;42.144;25.200;2023-02-15T02:46:01;37.60;;;18.80;;
71148;SDS011;59072;42.144;25.200;2023-02-15T02:48:32;41.50;;;19.63;;
71148;SDS011;59072;42.144;25.200;2023-02-15T02:50:59;41.95;;;20.40;;
71148;SDS011;59072;42.144;25.200;2023-02-15T02:53:24;45.55;;;20.95;;
71148;SDS011;59072;42.144;25.200;2023-02-15T02:55:56;70.95;;;29.08;;
71148;SDS011;59072;42.144;25.200;2023-02-15T02:58:40;58.58;;;25.60;;
71148;SDS011;59072;42.144;25.200;2023-02-15T03:03:47;59.00;;;26.00;;
71148;SDS011;59072;42.144;25.200;2023-02-15T03:06:17;60.92;;;26.25;;
71148;SDS011;59072;42.144;25.200;2023-02-15T03:08:49;52.90;;;23.52;;
71148;SDS011;59072;42.144;25.200;2023-02-15T03:11:19;40.60;;;21.55;;
71148;SDS011;59072;42.144;25.200;2023-02-15T03:13:44;36.33;;;17.45;;
71148;SDS011;59072;42.144;25.200;2023-02-15T03:16:13;38.13;;;20.50;;
71148;SDS011;59072;42.144;25.200;2023-02-15T03:19:14;39.08;;;18.65;;
71148;SDS011;59072;42.144;25.200;2023-02-15T03:24:14;33.47;;;16.48;;
71148;SDS011;59072;42.144;25.200;2023-02-15T03:26:45;37.00;;;19.83;;
71148;SDS011;59072;42.144;25.200;2023-02-15T03:29:13;40.40;;;18.77;;
71148;SDS011;59072;42.144;25.200;2023-02-15T03:31:42;40.20;;;19.23;;
71148;SDS011;59072;42.144;25.200;2023-02-15T03:34:11;38.33;;;19.65;;
71148;SDS011;59072;42.144;25.200;2023-02-15T03:36:47;34.00;;;18.13;;
71148;SDS011;59072;42.144;25.200;2023-02-15T03:39:42;40.72;;;19.23;;
71148;SDS011;59072;42.144;25.200;2023-02-15T03:42:16;39.85;;;17.88;;
71148;SDS011;59072;42.144;25.200;2023-02-15T03:44:46;36.50;;;19.23;;
71148;SDS011;59072;42.144;25.200;2023-02-15T03:47:20;32.60;;;16.73;;
71148;SDS011;59072;42.144;25.200;2023-02-15T03:49:55;32.15;;;16.50;;
71148;SDS011;59072;42.144;25.200;2023-02-15T03:52:28;35.08;;;16.85;;
71148;SDS011;59072;42.144;25.200;2023-02-15T03:54:55;31.77;;;16.15;;
71148;SDS011;59072;42.144;25.200;2023-02-15T03:57:25;34.25;;;15.20;;
71148;SDS011;59072;42.144;25.200;2023-02-15T04:00:15;33.53;;;15.70;;
71148;SDS011;59072;42.144;25.200;2023-02-15T04:05:39;35.00;;;14.83;;
71148;SDS011;59072;42.144;25.200;2023-02-15T04:08:05;29.98;;;14.48;;
71148;SDS011;59072;42.144;25.200;2023-02-15T04:10:31;32.25;;;14.93;;
71148;SDS011;59072;42.144;25.200;2023-02-15T04:13:15;29.77;;;14.52;;
71148;SDS011;59072;42.144;25.200;2023-02-15T04:15:40;28.13;;;14.13;;
71148;SDS011;59072;42.144;25.200;2023-02-15T04:18:24;28.63;;;14.23;;
71148;SDS011;59072;42.144;25.200;2023-02-15T04:21:08;32.50;;;15.30;;
71148;SDS011;59072;42.144;25.200;2023-02-15T04:23:52;33.42;;;15.55;;
71148;SDS011;59072;42.144;25.200;2023-02-15T04:26:39;30.60;;;15.00;;
71148;SDS011;59072;42.144;25.200;2023-02-15T04:29:04;29.08;;;14.52;;
71148;SDS011;59072;42.144;25.200;2023-02-15T04:31:29;26.17;;;13.52;;
71148;SDS011;59072;42.144;25.200;2023-02-15T04:33:55;28.23;;;13.95;;
71148;SDS011;59072;42.144;25.200;2023-02-15T04:36:23;28.90;;;13.70;;
71148;SDS011;59072;42.144;25.200;2023-02-15T04:38:48;32.83;;;14.50;;
71148;SDS011;59072;42.144;25.200;2023-02-15T04:41:14;32.13;;;14.32;;
71148;SDS011;59072;42.144;25.200;2023-02-15T04:43:39;58.03;;;26.65;;
71148;SDS011;59072;42.144;25.200;2023-02-15T04:46:04;31.85;;;14.70;;
71148;SDS011;59072;42.144;25.200;2023-02-15T04:48:30;45.17;;;18.13;;
71148;SDS011;59072;42.144;25.200;2023-02-15T04:50:55;200.20;;;62.50;;
71148;SDS011;59072;42.144;25.200;2023-02-15T04:53:21;55.22;;;21.45;;
71148;SDS011;59072;42.144;25.200;2023-02-15T04:55:46;46.42;;;17.58;;
71148;SDS011;59072;42.144;25.200;2023-02-15T05:00:40;55.85;;;19.65;;
71148;SDS011;59072;42.144;25.200;2023-02-15T05:03:05;105.18;;;38.10;;
71148;SDS011;59072;42.144;25.200;2023-02-15T05:05:35;43.70;;;17.42;;
71148;SDS011;59072;42.144;25.200;2023-02-15T05:08:01;38.53;;;16.02;;
71148;SDS011;59072;42.144;25.200;2023-02-15T05:10:26;30.90;;;14.00;;
71148;SDS011;59072;42.144;25.200;2023-02-15T05:12:51;29.30;;;14.27;;
71148;SDS011;59072;42.144;25.200;2023-02-15T05:15:17;34.55;;;14.95;;
71148;SDS011;59072;42.144;25.200;2023-02-15T05:17:45;32.70;;;14.63;;
71148;SDS011;59072;42.144;25.200;2023-02-15T05:20:11;31.30;;;13.98;;
71148;SDS011;59072;42.144;25.200;2023-02-15T05:22:36;32.20;;;14.55;;
71148;SDS011;59072;42.144;25.200;2023-02-15T05:25:05;26.98;;;13.63;;
71148;SDS011;59072;42.144;25.200;2023-02-15T05:27:49;52.22;;;20.00;;
71148;SDS011;59072;42.144;25.200;2023-02-15T05:30:33;54.25;;;21.38;;
71148;SDS011;59072;42.144;25.200;2023-02-15T05:32:59;49.08;;;18.42;;
71148;SDS011;59072;42.144;25.200;2023-02-15T05:35:24;43.20;;;19.02;;
71148;SDS011;59072;42.144;25.200;2023-02-15T05:37:50;32.13;;;16.20;;
71148;SDS011;59072;42.144;25.200;2023-02-15T05:40:16;33.10;;;16.27;;
71148;SDS011;59072;42.144;25.200;2023-02-15T05:42:41;30.92;;;14.15;;
71148;SDS011;59072;42.144;25.200;2023-02-15T05:45:06;29.40;;;14.93;;
71148;SDS011;59072;42.144;25.200;2023-02-15T05:47:32;31.63;;;16.65;;
71148;SDS011;59072;42.144;25.200;2023-02-15T05:49:57;25.42;;;15.80;;
71148;SDS011;59072;42.144;25.200;2023-02-15T05:52:23;26.00;;;16.55;;
71148;SDS011;59072;42.144;25.200;2023-02-15T05:54:48;31.63;;;16.10;;
71148;SDS011;59072;42.144;25.200;2023-02-15T05:57:13;21.67;;;12.85;;
71148;SDS011;59072;42.144;25.200;2023-02-15T05:59:39;25.40;;;13.93;;
71148;SDS011;59072;42.144;25.200;2023-02-15T06:02:04;30.42;;;15.98;;
71148;SDS011;59072;42.144;25.200;2023-02-15T06:04:31;27.48;;;15.23;;
71148;SDS011;59072;42.144;25.200;2023-02-15T06:06:56;41.53;;;20.98;;
71148;SDS011;59072;42.144;25.200;2023-02-15T06:09:22;51.95;;;26.48;;
71148;SDS011;59072;42.144;25.200;2023-02-15T06:11:47;45.30;;;25.80;;
71148;SDS011;59072;42.144;25.200;2023-02-15T06:14:15;49.78;;;28.85;;
71148;SDS011;59072;42.144;25.200;2023-02-15T06:16:41;46.85;;;25.35;;
71148;SDS011;59072;42.144;25.200;2023-02-15T06:19:06;44.25;;;22.73;;
71148;SDS011;59072;42.144;25.200;2023-02-15T06:21:31;42.40;;;21.48;;
71148;SDS011;59072;42.144;25.200;2023-02-15T06:23:57;37.67;;;20.10;;
71148;SDS011;59072;42.144;25.200;2023-02-15T06:26:22;34.75;;;19.83;;
71148;SDS011;59072;42.144;25.200;2023-02-15T06:28:48;37.92;;;21.42;;
71148;SDS011;59072;42.144;25.200;2023-02-15T06:31:13;38.75;;;21.35;;
71148;SDS011;59072;42.144;25.200;2023-02-15T06:33:39;78.80;;;35.35;;
71148;SDS011;59072;42.144;25.200;2023-02-15T06:36:04;88.28;;;43.20;;
71148;SDS011;59072;42.144;25.200;2023-02-15T06:38:30;93.32;;;46.88;;
71148;SDS011;59072;42.144;25.200;2023-02-15T06:40:56;67.53;;;35.88;;
71148;SDS011;59072;42.144;25.200;2023-02-15T06:43:21;76.57;;;39.63;;
71148;SDS011;59072;42.144;25.200;2023-02-15T06:45:47;85.82;;;47.03;;
71148;SDS011;59072;42.144;25.200;2023-02-15T06:48:12;129.02;;;67.88;;
71148;SDS011;59072;42.144;25.200;2023-02-15T06:50:37;63.97;;;32.10;;
71148;SDS011;59072;42.144;25.200;2023-02-15T06:53:03;57.58;;;27.65;;
71148;SDS011;59072;42.144;25.200;2023-02-15T06:55:29;50.50;;;27.42;;
71148;SDS011;59072;42.144;25.200;2023-02-15T06:57:54;42.83;;;23.60;;
71148;SDS011;59072;42.144;25.200;2023-02-15T07:00:20;49.33;;;26.15;;
71148;SDS011;59072;42.144;25.200;2023-02-15T07:02:48;48.83;;;24.13;;
71148;SDS011;59072;42.144;25.200;2023-02-15T07:05:20;35.47;;;19.10;;
71148;SDS011;59072;42.144;25.200;2023-02-15T07:07:45;36.85;;;19.77;;
71148;SDS011;59072;42.144;25.200;2023-02-15T07:10:11;36.28;;;17.92;;
71148;SDS011;59072;42.144;25.200;2023-02-15T07:12:36;33.75;;;16.30;;
71148;SDS011;59072;42.144;25.200;2023-02-15T07:15:10;30.67;;;16.88;;
71148;SDS011;59072;42.144;25.200;2023-02-15T07:17:40;36.78;;;17.83;;
71148;SDS011;59072;42.144;25.200;2023-02-15T07:20:06;79.40;;;36.78;;
71148;SDS011;59072;42.144;25.200;2023-02-15T07:22:38;45.67;;;23.00;;
71148;SDS011;59072;42.144;25.200;2023-02-15T07:25:04;45.88;;;23.20;;
71148;SDS011;59072;42.144;25.200;2023-02-15T07:29:58;59.33;;;28.92;;
71148;SDS011;59072;42.144;25.200;2023-02-15T07:32:25;58.40;;;29.35;;
71148;SDS011;59072;42.144;25.200;2023-02-15T07:34:55;50.40;;;28.13;;
71148;SDS011;59072;42.144;25.200;2023-02-15T07:37:20;45.88;;;25.23;;
71148;SDS011;59072;42.144;25.200;2023-02-15T07:39:46;75.47;;;39.42;;
71148;SDS011;59072;42.144;25.200;2023-02-15T07:42:11;58.28;;;30.40;;
71148;SDS011;59072;42.144;25.200;2023-02-15T07:44:37;48.80;;;25.85;;
71148;SDS011;59072;42.144;25.200;2023-02-15T07:47:02;40.15;;;22.17;;
71148;SDS011;59072;42.144;25.200;2023-02-15T07:49:27;55.00;;;29.60;;
71148;SDS011;59072;42.144;25.200;2023-02-15T07:51:53;49.72;;;28.27;;
71148;SDS011;59072;42.144;25.200;2023-02-15T07:54:21;33.17;;;20.35;;
71148;SDS011;59072;42.144;25.200;2023-02-15T07:56:46;31.38;;;18.65;;
71148;SDS011;59072;42.144;25.200;2023-02-15T07:59:11;34.58;;;19.63;;
71148;SDS011;59072;42.144;25.200;2023-02-15T08:01:38;35.13;;;19.20;;
71148;SDS011;59072;42.144;25.200;2023-02-15T08:04:04;40.35;;;22.90;;
71148;SDS011;59072;42.144;25.200;2023-02-15T08:06:32;46.40;;;22.00;;
71148;SDS011;59072;42.144;25.200;2023-02-15T08:09:00;48.40;;;25.58;;
71148;SDS011;59072;42.144;25.200;2023-02-15T08:11:29;40.67;;;21.92;;
71148;SDS011;59072;42.144;25.200;2023-02-15T08:21:38;40.15;;;22.10;;
71148;SDS011;59072;42.144;25.200;2023-02-15T08:24:06;43.72;;;23.13;;
71148;SDS011;59072;42.144;25.200;2023-02-15T08:26:33;41.85;;;23.45;;
71148;SDS011;59072;42.144;25.200;2023-02-15T08:28:59;39.90;;;21.13;;
71148;SDS011;59072;42.144;25.200;2023-02-15T08:31:25;33.30;;;19.35;;
71148;SDS011;59072;42.144;25.200;2023-02-15T08:33:52;35.63;;;18.60;;
71148;SDS011;59072;42.144;25.200;2023-02-15T08:36:19;33.10;;;17.60;;
71148;SDS011;59072;42.144;25.200;2023-02-15T08:38:47;36.50;;;19.33;;
71148;SDS011;59072;42.144;25.200;2023-02-15T08:43:45;30.42;;;17.33;;
71148;SDS011;59072;42.144;25.200;2023-02-15T08:46:12;33.08;;;18.45;;
71148;SDS011;59072;42.144;25.200;2023-02-15T08:48:39;35.33;;;18.02;;
71148;SDS011;59072;42.144;25.200;2023-02-15T08:51:09;32.38;;;17.50;;
71148;SDS011;59072;42.144;25.200;2023-02-15T08:53:47;37.10;;;17.15;;
71148;SDS011;59072;42.144;25.200;2023-02-15T08:56:14;30.98;;;16.70;;
71148;SDS011;59072;42.144;25.200;2023-02-15T08:58:40;35.38;;;17.90;;
71148;SDS011;59072;42.144;25.200;2023-02-15T09:01:16;31.63;;;17.45;;
71148;SDS011;59072;42.144;25.200;2023-02-15T09:06:11;31.42;;;16.73;;
71148;SDS011;59072;42.144;25.200;2023-02-15T09:08:37;31.83;;;16.45;;
71148;SDS011;59072;42.144;25.200;2023-02-15T09:13:37;36.20;;;17.92;;
71148;SDS011;59072;42.144;25.200;2023-02-15T09:16:04;31.85;;;17.90;;
71148;SDS011;59072;42.144;25.200;2023-02-15T09:18:31;33.45;;;17.55;;
71148;SDS011;59072;42.144;25.200;2023-02-15T09:21:19;34.25;;;17.92;;
71148;SDS011;59072;42.144;25.200;2023-02-15T09:23:50;33.33;;;17.20;;
71148;SDS011;59072;42.144;25.200;2023-02-15T09:26:18;32.47;;;18.25;;
71148;SDS011;59072;42.144;25.200;2023-02-15T09:28:44;33.38;;;18.17;;
71148;SDS011;59072;42.144;25.200;2023-02-15T09:31:12;33.95;;;18.55;;
71148;SDS011;59072;42.144;25.200;2023-02-15T09:33:42;32.60;;;18.02;;
71148;SDS011;59072;42.144;25.200;2023-02-15T09:38:58;36.28;;;21.17;;
71148;SDS011;59072;42.144;25.200;2023-02-15T10:12:07;31.02;;;17.85;;
71148;SDS011;59072;42.144;25.200;2023-02-15T10:25:20;30.52;;;17.98;;
71148;SDS011;59072;42.144;25.200;2023-02-15T10:27:54;30.13;;;17.77;;
71148;SDS011;59072;42.144;25.200;2023-02-15T10:30:26;32.03;;;19.15;;
71148;SDS011;59072;42.144;25.200;2023-02-15T10:33:03;30.17;;;18.08;;
71148;SDS011;59072;42.144;25.200;2023-02-15T10:35:57;27.02;;;15.90;;
71148;SDS011;59072;42.144;25.200;2023-02-15T10:46:48;27.77;;;14.73;;
71148;SDS011;59072;42.144;25.200;2023-02-15T11:07:51;20.48;;;13.02;;
71148;SDS011;59072;42.144;25.200;2023-02-15T11:10:26;19.15;;;10.80;;
71148;SDS011;59072;42.144;25.200;2023-02-15T11:12:52;21.30;;;11.10;;
71148;SDS011;59072;42.144;25.200;2023-02-15T11:15:31;21.40;;;11.55;;
71148;SDS011;59072;42.144;25.200;2023-02-15T11:18:09;16.33;;;10.15;;
71148;SDS011;59072;42.144;25.200;2023-02-15T11:23:35;16.80;;;10.15;;
71148;SDS011;59072;42.144;25.200;2023-02-15T11:26:09;24.90;;;12.38;;
71148;SDS011;59072;42.144;25.200;2023-02-15T11:28:42;15.65;;;9.82;;
71148;SDS011;59072;42.144;25.200;2023-02-15T11:31:17;15.32;;;9.50;;
71148;SDS011;59072;42.144;25.200;2023-02-15T11:33:47;15.73;;;9.02;;
71148;SDS011;59072;42.144;25.200;2023-02-15T11:36:20;16.48;;;9.48;;
71148;SDS011;59072;42.144;25.200;2023-02-15T11:38:50;17.42;;;10.18;;
71148;SDS011;59072;42.144;25.200;2023-02-15T11:41:23;14.40;;;9.40;;
71148;SDS011;59072;42.144;25.200;2023-02-15T11:46:23;12.68;;;8.35;;
71148;SDS011;59072;42.144;25.200;2023-02-15T11:48:49;15.18;;;8.90;;
71148;SDS011;59072;42.144;25.200;2023-02-15T11:51:16;15.95;;;8.98;;
71148;SDS011;59072;42.144;25.200;2023-02-15T11:53:44;15.48;;;8.95;;
71148;SDS011;59072;42.144;25.200;2023-02-15T11:56:19;14.90;;;8.98;;
71148;SDS011;59072;42.144;25.200;2023-02-15T12:03:59;17.50;;;10.55;;
71148;SDS011;59072;42.144;25.200;2023-02-15T12:06:32;19.48;;;10.70;;
71148;SDS011;59072;42.144;25.200;2023-02-15T12:11:44;16.70;;;9.85;;
71148;SDS011;59072;42.144;25.200;2023-02-15T12:14:13;17.35;;;10.10;;
71148;SDS011;59072;42.144;25.200;2023-02-15T12:16:45;16.92;;;9.73;;
71148;SDS011;59072;42.144;25.200;2023-02-15T12:19:20;16.75;;;10.05;;
71148;SDS011;59072;42.144;25.200;2023-02-15T12:21:54;16.33;;;10.65;;
71148;SDS011;59072;42.144;25.200;2023-02-15T12:24:22;16.23;;;10.13;;
71148;SDS011;59072;42.144;25.200;2023-02-15T12:27:04;16.80;;;9.85;;
71148;SDS011;59072;42.144;25.200;2023-02-15T12:29:39;16.15;;;8.95;;
71148;SDS011;59072;42.144;25.200;2023-02-15T12:35:01;14.82;;;9.02;;
71148;SDS011;59072;42.144;25.200;2023-02-15T12:37:33;14.52;;;8.65;;
71148;SDS011;59072;42.144;25.200;2023-02-15T12:40:00;13.70;;;8.57;;
71148;SDS011;59072;42.144;25.200;2023-02-15T12:42:28;13.93;;;8.98;;
71148;SDS011;59072;42.144;25.200;2023-02-15T12:45:26;16.00;;;9.00;;
71148;SDS011;59072;42.144;25.200;2023-02-15T12:48:08;11.55;;;7.60;;
71148;SDS011;59072;42.144;25.200;2023-02-15T12:50:41;16.00;;;9.50;;
71148;SDS011;59072;42.144;25.200;2023-02-15T12:53:19;14.85;;;9.27;;
71148;SDS011;59072;42.144;25.200;2023-02-15T12:55:56;15.68;;;9.20;;
71148;SDS011;59072;42.144;25.200;2023-02-15T13:01:03;14.02;;;8.60;;
71148;SDS011;59072;42.144;25.200;2023-02-15T13:03:53;12.98;;;7.85;;
71148;SDS011;59072;42.144;25.200;2023-02-15T13:06:25;14.25;;;9.35;;
71148;SDS011;59072;42.144;25.200;2023-02-15T13:08:55;12.82;;;7.75;;
71148;SDS011;59072;42.144;25.200;2023-02-15T13:11:28;12.32;;;7.65;;
71148;SDS011;59072;42.144;25.200;2023-02-15T13:14:18;12.25;;;8.07;;
71148;SDS011;59072;42.144;25.200;2023-02-15T13:16:51;12.75;;;8.18;;
71148;SDS011;59072;42.144;25.200;2023-02-15T13:21:52;13.23;;;7.43;;
71148;SDS011;59072;42.144;25.200;2023-02-15T13:24:24;12.93;;;8.02;;
71148;SDS011;59072;42.144;25.200;2023-02-15T13:26:52;12.52;;;7.95;;
71148;SDS011;59072;42.144;25.200;2023-02-15T13:31:53;12.00;;;7.35;;
71148;SDS011;59072;42.144;25.200;2023-02-15T13:34:22;11.85;;;7.75;;
71148;SDS011;59072;42.144;25.200;2023-02-15T13:36:54;12.27;;;7.93;;
71148;SDS011;59072;42.144;25.200;2023-02-15T13:39:26;14.10;;;8.48;;
71148;SDS011;59072;42.144;25.200;2023-02-15T13:42:16;12.18;;;8.80;;
71148;SDS011;59072;42.144;25.200;2023-02-15T13:56:02;12.50;;;8.32;;
71148;SDS011;59072;42.144;25.200;2023-02-15T14:01:58;17.67;;;11.68;;
71148;SDS011;59072;42.144;25.200;2023-02-15T14:21:45;16.00;;;11.63;;
71148;SDS011;59072;42.144;25.200;2023-02-15T14:30:20;18.30;;;13.05;;
71148;SDS011;59072;42.144;25.200;2023-02-15T14:32:48;16.20;;;12.43;;
71148;SDS011;59072;42.144;25.200;2023-02-15T14:35:18;18.33;;;12.25;;
71148;SDS011;59072;42.144;25.200;2023-02-15T14:56:43;16.45;;;12.00;;
71148;SDS011;59072;42.144;25.200;2023-02-15T14:59:45;23.58;;;14.93;;
71148;SDS011;59072;42.144;25.200;2023-02-15T15:02:18;25.42;;;17.85;;
71148;SDS011;59072;42.144;25.200;2023-02-15T15:10:00;33.20;;;22.20;;
71148;SDS011;59072;42.144;25.200;2023-02-15T15:14:53;22.70;;;12.98;;
71148;SDS011;59072;42.144;25.200;2023-02-15T15:23:40;33.83;;;21.63;;
71148;SDS011;59072;42.144;25.200;2023-02-15T15:25:47;27.77;;;17.65;;
71148;SDS011;59072;42.144;25.200;2023-02-15T15:50:19;29.50;;;14.53;;
71148;SDS011;59072;42.144;25.200;2023-02-15T15:52:55;21.02;;;12.68;;
71148;SDS011;59072;42.144;25.200;2023-02-15T15:55:27;22.83;;;13.40;;
71148;SDS011;59072;42.144;25.200;2023-02-15T15:57:56;25.65;;;13.20;;
71148;SDS011;59072;42.144;25.200;2023-02-15T16:02:59;20.75;;;11.40;;
71148;SDS011;59072;42.144;25.200;2023-02-15T16:05:25;25.17;;;12.23;;
71148;SDS011;59072;42.144;25.200;2023-02-15T16:07:50;30.90;;;13.55;;
71148;SDS011;59072;42.144;25.200;2023-02-15T16:10:24;62.25;;;26.77;;
71148;SDS011;59072;42.144;25.200;2023-02-15T16:12:52;48.72;;;25.13;;
71148;SDS011;59072;42.144;25.200;2023-02-15T16:15:20;53.88;;;28.40;;
71148;SDS011;59072;42.144;25.200;2023-02-15T16:17:52;47.08;;;22.75;;
71148;SDS011;59072;42.144;25.200;2023-02-15T16:20:29;43.60;;;18.38;;
71148;SDS011;59072;42.144;25.200;2023-02-15T16:23:02;39.15;;;20.45;;
71148;SDS011;59072;42.144;25.200;2023-02-15T16:28:52;54.78;;;27.23;;
71148;SDS011;59072;42.144;25.200;2023-02-15T16:31:19;55.50;;;29.00;;
71148;SDS011;59072;42.144;25.200;2023-02-15T16:33:52;74.00;;;33.67;;
71148;SDS011;59072;42.144;25.200;2023-02-15T16:36:20;72.38;;;35.85;;
71148;SDS011;59072;42.144;25.200;2023-02-15T16:41:15;69.13;;;34.47;;
71148;SDS011;59072;42.144;25.200;2023-02-15T16:43:47;63.70;;;35.08;;
71148;SDS011;59072;42.144;25.200;2023-02-15T16:46:20;81.70;;;42.85;;
71148;SDS011;59072;42.144;25.200;2023-02-15T16:49:00;76.65;;;38.08;;
71148;SDS011;59072;42.144;25.200;2023-02-15T16:51:30;84.22;;;41.40;;
71148;SDS011;59072;42.144;25.200;2023-02-15T16:54:00;75.22;;;36.63;;
71148;SDS011;59072;42.144;25.200;2023-02-15T16:56:43;64.72;;;34.40;;
71148;SDS011;59072;42.144;25.200;2023-02-15T16:59:17;55.85;;;32.72;;
71148;SDS011;59072;42.144;25.200;2023-02-15T17:01:59;62.47;;;34.78;;
71148;SDS011;59072;42.144;25.200;2023-02-15T17:04:29;64.22;;;29.42;;
71148;SDS011;59072;42.144;25.200;2023-02-15T17:07:12;76.13;;;39.08;;
71148;SDS011;59072;42.144;25.200;2023-02-15T17:09:55;69.72;;;35.58;;
71148;SDS011;59072;42.144;25.200;2023-02-15T17:17:51;154.43;;;62.92;;
71148;SDS011;59072;42.144;25.200;2023-02-15T17:20:18;111.85;;;50.83;;
71148;SDS011;59072;42.144;25.200;2023-02-15T17:22:46;102.88;;;48.10;;
71148;SDS011;59072;42.144;25.200;2023-02-15T17:25:18;148.77;;;64.88;;
71148;SDS011;59072;42.144;25.200;2023-02-15T17:27:51;162.30;;;73.32;;
71148;SDS011;59072;42.144;25.200;2023-02-15T17:30:23;151.95;;;69.32;;
71148;SDS011;59072;42.144;25.200;2023-02-15T17:32:57;116.80;;;58.60;;
71148;SDS011;59072;42.144;25.200;2023-02-15T17:35:28;76.10;;;40.35;;
71148;SDS011;59072;42.144;25.200;2023-02-15T17:40:28;57.05;;;34.92;;
71148;SDS011;59072;42.144;25.200;2023-02-15T17:42:55;49.72;;;26.15;;
71148;SDS011;59072;42.144;25.200;2023-02-15T17:45:24;54.00;;;31.13;;
71148;SDS011;59072;42.144;25.200;2023-02-15T17:47:55;55.85;;;33.03;;
71148;SDS011;59072;42.144;25.200;2023-02-15T17:52:50;44.22;;;28.05;;
71148;SDS011;59072;42.144;25.200;2023-02-15T17:55:18;44.60;;;26.02;;
71148;SDS011;59072;42.144;25.200;2023-02-15T17:58:00;41.40;;;26.13;;
71148;SDS011;59072;42.144;25.200;2023-02-15T18:00:27;41.55;;;22.25;;
71148;SDS011;59072;42.144;25.200;2023-02-15T18:03:13;50.03;;;25.48;;
71148;SDS011;59072;42.144;25.200;2023-02-15T18:05:57;65.15;;;34.35;;
71148;SDS011;59072;42.144;25.200;2023-02-15T18:08:42;105.50;;;48.25;;
71148;SDS011;59072;42.144;25.200;2023-02-15T18:11:26;80.40;;;39.53;;
71148;SDS011;59072;42.144;25.200;2023-02-15T18:14:05;64.20;;;33.40;;
71148;SDS011;59072;42.144;25.200;2023-02-15T18:16:38;61.40;;;30.95;;
71148;SDS011;59072;42.144;25.200;2023-02-15T18:19:16;62.92;;;32.92;;
71148;SDS011;59072;42.144;25.200;2023-02-15T18:21:45;79.03;;;39.05;;
71148;SDS011;59072;42.144;25.200;2023-02-15T18:24:15;91.80;;;44.42;;
71148;SDS011;59072;42.144;25.200;2023-02-15T18:26:42;100.85;;;48.40;;
71148;SDS011;59072;42.144;25.200;2023-02-15T18:29:08;92.68;;;44.00;;
71148;SDS011;59072;42.144;25.200;2023-02-15T18:31:34;89.22;;;48.03;;
71148;SDS011;59072;42.144;25.200;2023-02-15T18:33:59;116.47;;;56.97;;
71148;SDS011;59072;42.144;25.200;2023-02-15T18:36:28;63.97;;;34.00;;
71148;SDS011;59072;42.144;25.200;2023-02-15T18:38:57;66.88;;;34.85;;
71148;SDS011;59072;42.144;25.200;2023-02-15T18:41:23;76.47;;;40.05;;
71148;SDS011;59072;42.144;25.200;2023-02-15T18:43:50;88.55;;;44.97;;
71148;SDS011;59072;42.144;25.200;2023-02-15T18:46:17;90.85;;;45.53;;
71148;SDS011;59072;42.144;25.200;2023-02-15T18:48:43;93.57;;;44.95;;
71148;SDS011;59072;42.144;25.200;2023-02-15T18:51:28;87.43;;;46.80;;
71148;SDS011;59072;42.144;25.200;2023-02-15T18:54:00;68.97;;;35.03;;